sensor_id;sensor_type;location;lat;lon;timestamp;P1;durP1;ratioP1;P2;durP2;ratioP2
12846;SDS011;6492;48.128;8.320;2023-04-16T00:02:07;4.20;;;3.30;;
12846;SDS011;6492;48.128;8.320;2023-04-16T00:06:10;4.40;;;4.00;;
12846;SDS011;6492;48.128;8.320;2023-04-16T00:10:12;4.03;;;3.50;;
12846;SDS011;6492;48.128;8.320;2023-04-16T00:14:15;4.70;;;3.97;;
12846;SDS011;6492;48.128;8.320;2023-04-16T00:18:16;4.63;;;3.93;;
12846;SDS011;6492;48.128;8.320;2023-04-16T00:22:21;5.13;;;4.17;;
12846;SDS011;6492;48.128;8.320;2023-04-16T00:26:23;4.53;;;3.83;;
12846;SDS011;6492;48.128;8.320;2023-04-16T00:30:25;4.80;;;3.97;;
12846;SDS011;6492;48.128;8.320;2023-04-16T00:34:26;5.07;;;4.13;;
12846;SDS011;6492;48.128;8.320;2023-04-16T00:38:29;4.10;;;3.47;;
12846;SDS011;6492;48.128;8.320;2023-04-16T00:42:31;4.43;;;3.80;;
12846;SDS011;6492;48.128;8.320;2023-04-16T00:46:33;4.33;;;3.80;;
12846;SDS011;6492;48.128;8.320;2023-04-16T00:50:36;4.90;;;3.80;;
12846;SDS011;6492;48.128;8.320;2023-04-16T00:54:39;4.93;;;3.80;;
12846;SDS011;6492;48.128;8.320;2023-04-16T00:58:41;5.20;;;4.17;;
12846;SDS011;6492;48.128;8.320;2023-04-16T01:02:43;5.53;;;4.40;;
12846;SDS011;6492;48.128;8.320;2023-04-16T01:06:45;4.50;;;3.83;;
12846;SDS011;6492;48.128;8.320;2023-04-16T01:10:48;6.03;;;4.53;;
12846;SDS011;6492;48.128;8.320;2023-04-16T01:14:50;5.13;;;3.97;;
12846;SDS011;6492;48.128;8.320;2023-04-16T01:18:52;4.37;;;3.53;;
12846;SDS011;6492;48.128;8.320;2023-04-16T01:22:55;5.10;;;3.70;;
12846;SDS011;6492;48.128;8.320;2023-04-16T01:26:57;4.70;;;3.77;;
12846;SDS011;6492;48.128;8.320;2023-04-16T01:30:59;5.60;;;4.17;;
12846;SDS011;6492;48.128;8.320;2023-04-16T01:35:01;5.10;;;4.13;;
12846;SDS011;6492;48.128;8.320;2023-04-16T01:39:04;5.00;;;3.77;;
12846;SDS011;6492;48.128;8.320;2023-04-16T01:43:06;4.97;;;3.70;;
12846;SDS011;6492;48.128;8.320;2023-04-16T01:47:08;5.33;;;4.10;;
12846;SDS011;6492;48.128;8.320;2023-04-16T01:51:09;3.93;;;2.97;;
12846;SDS011;6492;48.128;8.320;2023-04-16T01:55:13;5.03;;;3.50;;
12846;SDS011;6492;48.128;8.320;2023-04-16T01:59:14;4.13;;;3.60;;
12846;SDS011;6492;48.128;8.320;2023-04-16T02:03:16;4.33;;;3.30;;
12846;SDS011;6492;48.128;8.320;2023-04-16T02:11:55;3.10;;;2.80;;
12846;SDS011;6492;48.128;8.320;2023-04-16T02:15:56;4.13;;;3.37;;
12846;SDS011;6492;48.128;8.320;2023-04-16T02:19:58;4.63;;;3.50;;
12846;SDS011;6492;48.128;8.320;2023-04-16T02:24:02;4.83;;;3.80;;
12846;SDS011;6492;48.128;8.320;2023-04-16T02:28:05;5.57;;;3.97;;
12846;SDS011;6492;48.128;8.320;2023-04-16T02:32:07;4.87;;;4.03;;
12846;SDS011;6492;48.128;8.320;2023-04-16T02:36:09;6.53;;;4.07;;
12846;SDS011;6492;48.128;8.320;2023-04-16T02:40:11;10.37;;;4.83;;
12846;SDS011;6492;48.128;8.320;2023-04-16T02:44:15;6.27;;;4.57;;
12846;SDS011;6492;48.128;8.320;2023-04-16T02:48:16;23.40;;;5.77;;
12846;SDS011;6492;48.128;8.320;2023-04-16T02:52:18;14.30;;;4.93;;
12846;SDS011;6492;48.128;8.320;2023-04-16T02:56:20;8.13;;;4.60;;
12846;SDS011;6492;48.128;8.320;2023-04-16T03:00:23;8.40;;;4.97;;
12846;SDS011;6492;48.128;8.320;2023-04-16T03:04:25;6.73;;;4.97;;
12846;SDS011;6492;48.128;8.320;2023-04-16T03:08:26;9.33;;;4.97;;
12846;SDS011;6492;48.128;8.320;2023-04-16T03:12:28;10.03;;;5.60;;
12846;SDS011;6492;48.128;8.320;2023-04-16T03:16:31;8.10;;;5.33;;
12846;SDS011;6492;48.128;8.320;2023-04-16T03:20:33;14.40;;;6.03;;
12846;SDS011;6492;48.128;8.320;2023-04-16T03:24:35;21.87;;;7.00;;
12846;SDS011;6492;48.128;8.320;2023-04-16T03:28:37;111.73;;;14.40;;
12846;SDS011;6492;48.128;8.320;2023-04-16T03:32:40;232.10;;;22.80;;
12846;SDS011;6492;48.128;8.320;2023-04-16T03:36:42;122.63;;;16.50;;
12846;SDS011;6492;48.128;8.320;2023-04-16T03:40:44;72.73;;;14.60;;
12846;SDS011;6492;48.128;8.320;2023-04-16T03:44:45;423.83;;;38.93;;
12846;SDS011;6492;48.128;8.320;2023-04-16T03:48:48;577.83;;;41.30;;
12846;SDS011;6492;48.128;8.320;2023-04-16T03:52:50;215.73;;;19.40;;
12846;SDS011;6492;48.128;8.320;2023-04-16T03:56:52;495.17;;;42.30;;
12846;SDS011;6492;48.128;8.320;2023-04-16T04:00:54;632.07;;;52.07;;
12846;SDS011;6492;48.128;8.320;2023-04-16T04:04:57;450.03;;;37.33;;
12846;SDS011;6492;48.128;8.320;2023-04-16T04:08:58;235.17;;;26.73;;
12846;SDS011;6492;48.128;8.320;2023-04-16T04:13:01;206.37;;;22.03;;
12846;SDS011;6492;48.128;8.320;2023-04-16T04:17:05;105.53;;;16.60;;
12846;SDS011;6492;48.128;8.320;2023-04-16T04:21:08;340.87;;;32.70;;
12846;SDS011;6492;48.128;8.320;2023-04-16T04:25:10;382.33;;;34.73;;
12846;SDS011;6492;48.128;8.320;2023-04-16T04:29:12;525.50;;;45.47;;
12846;SDS011;6492;48.128;8.320;2023-04-16T04:33:13;250.67;;;27.43;;
12846;SDS011;6492;48.128;8.320;2023-04-16T04:37:18;274.80;;;26.80;;
12846;SDS011;6492;48.128;8.320;2023-04-16T04:41:20;439.60;;;36.93;;
12846;SDS011;6492;48.128;8.320;2023-04-16T04:45:21;297.27;;;30.63;;
12846;SDS011;6492;48.128;8.320;2023-04-16T04:49:24;87.27;;;16.43;;
12846;SDS011;6492;48.128;8.320;2023-04-16T04:53:27;11.43;;;6.93;;
12846;SDS011;6492;48.128;8.320;2023-04-16T04:57:29;9.77;;;6.57;;
12846;SDS011;6492;48.128;8.320;2023-04-16T05:01:30;9.80;;;6.10;;
12846;SDS011;6492;48.128;8.320;2023-04-16T05:05:32;8.07;;;5.70;;
12846;SDS011;6492;48.128;8.320;2023-04-16T05:09:36;7.63;;;5.60;;
12846;SDS011;6492;48.128;8.320;2023-04-16T05:13:38;10.70;;;6.30;;
12846;SDS011;6492;48.128;8.320;2023-04-16T05:17:53;10.00;;;6.60;;
12846;SDS011;6492;48.128;8.320;2023-04-16T05:21:55;10.03;;;6.70;;
12846;SDS011;6492;48.128;8.320;2023-04-16T05:25:58;7.90;;;5.83;;
12846;SDS011;6492;48.128;8.320;2023-04-16T05:30:00;7.77;;;5.57;;
12846;SDS011;6492;48.128;8.320;2023-04-16T05:34:02;7.37;;;4.93;;
12846;SDS011;6492;48.128;8.320;2023-04-16T05:38:04;7.07;;;3.83;;
12846;SDS011;6492;48.128;8.320;2023-04-16T05:42:07;6.67;;;3.87;;
12846;SDS011;6492;48.128;8.320;2023-04-16T05:46:09;4.27;;;2.97;;
12846;SDS011;6492;48.128;8.320;2023-04-16T05:50:11;5.87;;;3.87;;
12846;SDS011;6492;48.128;8.320;2023-04-16T05:54:12;3.53;;;2.83;;
12846;SDS011;6492;48.128;8.320;2023-04-16T05:58:16;6.20;;;4.00;;
12846;SDS011;6492;48.128;8.320;2023-04-16T06:06:39;7.20;;;4.30;;
12846;SDS011;6492;48.128;8.320;2023-04-16T06:10:41;5.63;;;4.50;;
12846;SDS011;6492;48.128;8.320;2023-04-16T06:14:44;6.47;;;4.23;;
12846;SDS011;6492;48.128;8.320;2023-04-16T06:18:45;5.83;;;4.20;;
12846;SDS011;6492;48.128;8.320;2023-04-16T06:22:47;5.77;;;4.10;;
12846;SDS011;6492;48.128;8.320;2023-04-16T06:26:49;5.53;;;4.20;;
12846;SDS011;6492;48.128;8.320;2023-04-16T06:30:52;5.17;;;3.80;;
12846;SDS011;6492;48.128;8.320;2023-04-16T06:34:54;5.07;;;3.83;;
12846;SDS011;6492;48.128;8.320;2023-04-16T06:38:57;5.50;;;3.93;;
12846;SDS011;6492;48.128;8.320;2023-04-16T06:42:59;4.83;;;3.97;;
12846;SDS011;6492;48.128;8.320;2023-04-16T06:47:04;4.43;;;3.50;;
12846;SDS011;6492;48.128;8.320;2023-04-16T06:51:06;4.17;;;3.00;;
12846;SDS011;6492;48.128;8.320;2023-04-16T06:55:09;3.93;;;2.70;;
12846;SDS011;6492;48.128;8.320;2023-04-16T06:59:18;2.43;;;2.10;;
12846;SDS011;6492;48.128;8.320;2023-04-16T07:03:33;2.80;;;2.30;;
12846;SDS011;6492;48.128;8.320;2023-04-16T07:07:36;4.50;;;3.10;;
12846;SDS011;6492;48.128;8.320;2023-04-16T07:11:38;3.63;;;3.10;;
12846;SDS011;6492;48.128;8.320;2023-04-16T07:15:49;45.63;;;7.63;;
12846;SDS011;6492;48.128;8.320;2023-04-16T07:19:52;88.40;;;9.90;;
12846;SDS011;6492;48.128;8.320;2023-04-16T07:23:54;75.90;;;8.83;;
12846;SDS011;6492;48.128;8.320;2023-04-16T07:27:56;194.17;;;17.63;;
12846;SDS011;6492;48.128;8.320;2023-04-16T07:36:30;63.27;;;9.00;;
12846;SDS011;6492;48.128;8.320;2023-04-16T07:45:01;99.67;;;11.67;;
12846;SDS011;6492;48.128;8.320;2023-04-16T07:49:03;100.97;;;27.63;;
12846;SDS011;6492;48.128;8.320;2023-04-16T07:53:06;88.20;;;12.50;;
12846;SDS011;6492;48.128;8.320;2023-04-16T07:57:08;176.37;;;23.37;;
12846;SDS011;6492;48.128;8.320;2023-04-16T08:01:27;169.40;;;26.90;;
12846;SDS011;6492;48.128;8.320;2023-04-16T08:09:59;14.33;;;5.83;;
12846;SDS011;6492;48.128;8.320;2023-04-16T08:14:01;44.13;;;7.43;;
12846;SDS011;6492;48.128;8.320;2023-04-16T08:27:31;19.63;;;8.40;;
12846;SDS011;6492;48.128;8.320;2023-04-16T08:31:33;23.17;;;8.20;;
12846;SDS011;6492;48.128;8.320;2023-04-16T08:35:35;15.97;;;7.47;;
12846;SDS011;6492;48.128;8.320;2023-04-16T08:39:37;6.43;;;4.70;;
12846;SDS011;6492;48.128;8.320;2023-04-16T08:43:43;17.90;;;6.83;;
12846;SDS011;6492;48.128;8.320;2023-04-16T08:47:46;5.77;;;4.43;;
12846;SDS011;6492;48.128;8.320;2023-04-16T08:56:04;22.37;;;6.60;;
12846;SDS011;6492;48.128;8.320;2023-04-16T09:00:11;32.77;;;7.20;;
12846;SDS011;6492;48.128;8.320;2023-04-16T09:04:14;19.97;;;6.17;;
12846;SDS011;6492;48.128;8.320;2023-04-16T09:08:17;98.97;;;11.43;;
12846;SDS011;6492;48.128;8.320;2023-04-16T09:12:24;48.00;;;9.30;;
12846;SDS011;6492;48.128;8.320;2023-04-16T09:16:28;43.10;;;8.57;;
12846;SDS011;6492;48.128;8.320;2023-04-16T09:20:34;82.80;;;9.87;;
12846;SDS011;6492;48.128;8.320;2023-04-16T09:24:36;76.67;;;9.13;;
12846;SDS011;6492;48.128;8.320;2023-04-16T09:28:38;41.80;;;7.10;;
12846;SDS011;6492;48.128;8.320;2023-04-16T09:32:43;38.37;;;7.90;;
12846;SDS011;6492;48.128;8.320;2023-04-16T09:41:24;117.37;;;12.73;;
12846;SDS011;6492;48.128;8.320;2023-04-16T09:45:30;179.77;;;16.63;;
12846;SDS011;6492;48.128;8.320;2023-04-16T09:49:34;237.80;;;20.10;;
12846;SDS011;6492;48.128;8.320;2023-04-16T09:58:01;15.43;;;4.97;;
12846;SDS011;6492;48.128;8.320;2023-04-16T10:02:02;13.80;;;5.97;;
12846;SDS011;6492;48.128;8.320;2023-04-16T10:06:12;29.73;;;6.70;;
12846;SDS011;6492;48.128;8.320;2023-04-16T10:10:15;11.27;;;5.27;;
12846;SDS011;6492;48.128;8.320;2023-04-16T10:14:17;56.20;;;10.43;;
12846;SDS011;6492;48.128;8.320;2023-04-16T10:18:25;51.07;;;8.73;;
12846;SDS011;6492;48.128;8.320;2023-04-16T10:27:10;54.20;;;8.33;;
12846;SDS011;6492;48.128;8.320;2023-04-16T10:31:45;37.43;;;7.83;;
12846;SDS011;6492;48.128;8.320;2023-04-16T10:35:48;18.17;;;4.27;;
12846;SDS011;6492;48.128;8.320;2023-04-16T10:39:53;20.03;;;4.87;;
12846;SDS011;6492;48.128;8.320;2023-04-16T10:44:02;24.53;;;6.93;;
12846;SDS011;6492;48.128;8.320;2023-04-16T10:48:08;41.90;;;6.43;;
12846;SDS011;6492;48.128;8.320;2023-04-16T10:52:14;30.47;;;7.83;;
12846;SDS011;6492;48.128;8.320;2023-04-16T10:56:22;19.27;;;5.40;;
12846;SDS011;6492;48.128;8.320;2023-04-16T11:00:25;13.47;;;4.50;;
12846;SDS011;6492;48.128;8.320;2023-04-16T11:04:36;14.20;;;4.43;;
12846;SDS011;6492;48.128;8.320;2023-04-16T11:08:40;18.17;;;5.10;;
12846;SDS011;6492;48.128;8.320;2023-04-16T11:12:45;61.47;;;7.90;;
12846;SDS011;6492;48.128;8.320;2023-04-16T11:16:47;45.97;;;8.20;;
12846;SDS011;6492;48.128;8.320;2023-04-16T11:20:49;134.97;;;13.73;;
12846;SDS011;6492;48.128;8.320;2023-04-16T11:24:52;151.30;;;14.47;;
12846;SDS011;6492;48.128;8.320;2023-04-16T11:28:56;116.33;;;11.20;;
12846;SDS011;6492;48.128;8.320;2023-04-16T11:33:00;168.80;;;18.10;;
12846;SDS011;6492;48.128;8.320;2023-04-16T11:37:02;413.90;;;32.73;;
12846;SDS011;6492;48.128;8.320;2023-04-16T11:41:04;121.00;;;13.40;;
12846;SDS011;6492;48.128;8.320;2023-04-16T11:45:08;305.83;;;26.93;;
12846;SDS011;6492;48.128;8.320;2023-04-16T11:49:26;162.80;;;19.07;;
12846;SDS011;6492;48.128;8.320;2023-04-16T11:53:28;131.23;;;16.00;;
12846;SDS011;6492;48.128;8.320;2023-04-16T11:57:31;219.50;;;23.13;;
12846;SDS011;6492;48.128;8.320;2023-04-16T12:01:35;144.57;;;18.33;;
12846;SDS011;6492;48.128;8.320;2023-04-16T12:05:39;72.03;;;14.37;;
12846;SDS011;6492;48.128;8.320;2023-04-16T12:10:02;110.63;;;16.00;;
12846;SDS011;6492;48.128;8.320;2023-04-16T12:14:06;44.87;;;11.33;;
12846;SDS011;6492;48.128;8.320;2023-04-16T12:18:09;60.07;;;14.70;;
12846;SDS011;6492;48.128;8.320;2023-04-16T12:22:11;32.77;;;12.27;;
12846;SDS011;6492;48.128;8.320;2023-04-16T12:26:14;16.53;;;10.30;;
12846;SDS011;6492;48.128;8.320;2023-04-16T12:30:17;19.07;;;12.73;;
12846;SDS011;6492;48.128;8.320;2023-04-16T12:34:21;18.33;;;11.37;;
12846;SDS011;6492;48.128;8.320;2023-04-16T12:38:33;30.53;;;15.83;;
12846;SDS011;6492;48.128;8.320;2023-04-16T12:42:37;31.03;;;17.50;;
12846;SDS011;6492;48.128;8.320;2023-04-16T12:46:39;25.60;;;14.57;;
12846;SDS011;6492;48.128;8.320;2023-04-16T12:50:44;15.47;;;9.63;;
12846;SDS011;6492;48.128;8.320;2023-04-16T12:54:48;19.40;;;10.73;;
12846;SDS011;6492;48.128;8.320;2023-04-16T12:58:50;14.40;;;9.70;;
12846;SDS011;6492;48.128;8.320;2023-04-16T13:03:01;19.33;;;11.00;;
12846;SDS011;6492;48.128;8.320;2023-04-16T13:07:06;15.47;;;9.53;;
12846;SDS011;6492;48.128;8.320;2023-04-16T13:11:14;17.30;;;9.90;;
12846;SDS011;6492;48.128;8.320;2023-04-16T13:15:32;19.80;;;10.47;;
12846;SDS011;6492;48.128;8.320;2023-04-16T13:19:35;18.47;;;11.17;;
12846;SDS011;6492;48.128;8.320;2023-04-16T13:23:40;16.07;;;10.07;;
12846;SDS011;6492;48.128;8.320;2023-04-16T13:27:44;17.07;;;10.43;;
12846;SDS011;6492;48.128;8.320;2023-04-16T13:31:45;18.10;;;11.20;;
12846;SDS011;6492;48.128;8.320;2023-04-16T13:35:47;18.30;;;12.10;;
12846;SDS011;6492;48.128;8.320;2023-04-16T13:39:51;17.90;;;11.37;;
12846;SDS011;6492;48.128;8.320;2023-04-16T13:43:55;15.33;;;10.40;;
12846;SDS011;6492;48.128;8.320;2023-04-16T13:47:58;16.50;;;9.47;;
12846;SDS011;6492;48.128;8.320;2023-04-16T13:52:00;14.77;;;10.13;;
12846;SDS011;6492;48.128;8.320;2023-04-16T13:56:05;15.27;;;9.57;;
12846;SDS011;6492;48.128;8.320;2023-04-16T14:00:07;13.73;;;9.43;;
12846;SDS011;6492;48.128;8.320;2023-04-16T14:04:12;12.47;;;9.23;;
12846;SDS011;6492;48.128;8.320;2023-04-16T14:12:35;14.77;;;9.77;;
12846;SDS011;6492;48.128;8.320;2023-04-16T14:16:38;14.97;;;9.70;;
12846;SDS011;6492;48.128;8.320;2023-04-16T14:20:39;13.03;;;8.77;;
12846;SDS011;6492;48.128;8.320;2023-04-16T14:24:41;13.87;;;9.80;;
12846;SDS011;6492;48.128;8.320;2023-04-16T14:28:44;13.83;;;9.73;;
12846;SDS011;6492;48.128;8.320;2023-04-16T14:32:46;15.33;;;8.83;;
12846;SDS011;6492;48.128;8.320;2023-04-16T14:36:48;10.50;;;7.27;;
12846;SDS011;6492;48.128;8.320;2023-04-16T14:40:50;10.07;;;6.97;;
12846;SDS011;6492;48.128;8.320;2023-04-16T14:45:00;11.73;;;7.83;;
12846;SDS011;6492;48.128;8.320;2023-04-16T14:49:01;8.90;;;6.97;;
12846;SDS011;6492;48.128;8.320;2023-04-16T14:53:03;12.43;;;7.70;;
12846;SDS011;6492;48.128;8.320;2023-04-16T14:57:17;11.23;;;7.30;;
12846;SDS011;6492;48.128;8.320;2023-04-16T15:01:20;10.40;;;6.73;;
12846;SDS011;6492;48.128;8.320;2023-04-16T15:05:24;9.67;;;7.00;;
12846;SDS011;6492;48.128;8.320;2023-04-16T15:09:32;11.40;;;7.60;;
12846;SDS011;6492;48.128;8.320;2023-04-16T15:13:35;10.37;;;6.93;;
12846;SDS011;6492;48.128;8.320;2023-04-16T15:17:38;9.97;;;6.87;;
12846;SDS011;6492;48.128;8.320;2023-04-16T15:21:39;7.97;;;5.70;;
12846;SDS011;6492;48.128;8.320;2023-04-16T15:25:48;8.47;;;5.97;;
12846;SDS011;6492;48.128;8.320;2023-04-16T15:29:50;6.97;;;5.30;;
12846;SDS011;6492;48.128;8.320;2023-04-16T15:38:03;7.27;;;5.00;;
12846;SDS011;6492;48.128;8.320;2023-04-16T15:42:05;7.27;;;5.40;;
12846;SDS011;6492;48.128;8.320;2023-04-16T15:46:07;8.43;;;6.10;;
12846;SDS011;6492;48.128;8.320;2023-04-16T15:50:10;11.00;;;5.90;;
12846;SDS011;6492;48.128;8.320;2023-04-16T15:54:12;9.30;;;6.60;;
12846;SDS011;6492;48.128;8.320;2023-04-16T15:58:14;13.03;;;7.23;;
12846;SDS011;6492;48.128;8.320;2023-04-16T16:02:24;7.97;;;5.87;;
12846;SDS011;6492;48.128;8.320;2023-04-16T16:06:27;11.57;;;7.53;;
12846;SDS011;6492;48.128;8.320;2023-04-16T16:10:29;12.40;;;7.80;;
12846;SDS011;6492;48.128;8.320;2023-04-16T16:14:31;7.70;;;5.97;;
12846;SDS011;6492;48.128;8.320;2023-04-16T16:18:33;7.83;;;5.87;;
12846;SDS011;6492;48.128;8.320;2023-04-16T16:22:37;7.37;;;4.70;;
12846;SDS011;6492;48.128;8.320;2023-04-16T16:26:39;5.67;;;4.43;;
12846;SDS011;6492;48.128;8.320;2023-04-16T16:30:43;5.77;;;5.03;;
12846;SDS011;6492;48.128;8.320;2023-04-16T16:34:46;5.93;;;4.80;;
12846;SDS011;6492;48.128;8.320;2023-04-16T16:38:53;5.97;;;4.50;;
12846;SDS011;6492;48.128;8.320;2023-04-16T16:42:57;12.60;;;8.77;;
12846;SDS011;6492;48.128;8.320;2023-04-16T16:46:58;7.83;;;5.33;;
12846;SDS011;6492;48.128;8.320;2023-04-16T16:55:36;6.50;;;5.40;;
12846;SDS011;6492;48.128;8.320;2023-04-16T17:03:59;6.50;;;5.20;;
12846;SDS011;6492;48.128;8.320;2023-04-16T17:08:02;5.20;;;4.37;;
12846;SDS011;6492;48.128;8.320;2023-04-16T17:12:08;5.83;;;4.77;;
12846;SDS011;6492;48.128;8.320;2023-04-16T17:16:09;6.50;;;4.87;;
12846;SDS011;6492;48.128;8.320;2023-04-16T17:20:21;6.50;;;5.33;;
12846;SDS011;6492;48.128;8.320;2023-04-16T17:24:25;14.47;;;6.53;;
12846;SDS011;6492;48.128;8.320;2023-04-16T17:28:41;6.77;;;4.93;;
12846;SDS011;6492;48.128;8.320;2023-04-16T17:32:43;80.43;;;11.27;;
12846;SDS011;6492;48.128;8.320;2023-04-16T17:36:57;86.17;;;11.77;;
12846;SDS011;6492;48.128;8.320;2023-04-16T17:40:59;49.13;;;10.80;;
12846;SDS011;6492;48.128;8.320;2023-04-16T17:45:08;21.03;;;5.90;;
12846;SDS011;6492;48.128;8.320;2023-04-16T17:49:11;59.23;;;7.73;;
12846;SDS011;6492;48.128;8.320;2023-04-16T17:53:19;25.40;;;6.50;;
12846;SDS011;6492;48.128;8.320;2023-04-16T17:57:29;8.47;;;4.67;;
12846;SDS011;6492;48.128;8.320;2023-04-16T18:01:32;15.27;;;4.97;;
12846;SDS011;6492;48.128;8.320;2023-04-16T18:05:38;6.00;;;4.77;;
12846;SDS011;6492;48.128;8.320;2023-04-16T18:09:42;7.93;;;4.03;;
12846;SDS011;6492;48.128;8.320;2023-04-16T18:17:56;5.10;;;3.83;;
12846;SDS011;6492;48.128;8.320;2023-04-16T18:21:58;4.97;;;3.60;;
12846;SDS011;6492;48.128;8.320;2023-04-16T18:26:02;3.90;;;3.47;;
12846;SDS011;6492;48.128;8.320;2023-04-16T18:30:04;4.03;;;3.37;;
12846;SDS011;6492;48.128;8.320;2023-04-16T18:34:10;6.30;;;4.07;;
12846;SDS011;6492;48.128;8.320;2023-04-16T18:38:12;59.90;;;8.40;;
12846;SDS011;6492;48.128;8.320;2023-04-16T18:46:37;35.47;;;7.30;;
12846;SDS011;6492;48.128;8.320;2023-04-16T18:50:54;23.10;;;4.63;;
12846;SDS011;6492;48.128;8.320;2023-04-16T18:59:15;10.47;;;4.07;;
12846;SDS011;6492;48.128;8.320;2023-04-16T19:07:43;7.23;;;4.17;;
12846;SDS011;6492;48.128;8.320;2023-04-16T19:11:44;5.30;;;3.77;;
12846;SDS011;6492;48.128;8.320;2023-04-16T19:15:48;4.33;;;3.50;;
12846;SDS011;6492;48.128;8.320;2023-04-16T19:19:50;8.40;;;5.57;;
12846;SDS011;6492;48.128;8.320;2023-04-16T19:23:53;4.93;;;4.10;;
12846;SDS011;6492;48.128;8.320;2023-04-16T19:27:55;2.60;;;2.40;;
12846;SDS011;6492;48.128;8.320;2023-04-16T19:31:57;4.40;;;2.83;;
12846;SDS011;6492;48.128;8.320;2023-04-16T19:36:00;2.50;;;2.30;;
12846;SDS011;6492;48.128;8.320;2023-04-16T19:40:08;2.67;;;2.10;;
12846;SDS011;6492;48.128;8.320;2023-04-16T19:44:11;3.10;;;2.50;;
12846;SDS011;6492;48.128;8.320;2023-04-16T19:48:25;2.30;;;2.07;;
12846;SDS011;6492;48.128;8.320;2023-04-16T19:56:37;6.13;;;4.47;;
12846;SDS011;6492;48.128;8.320;2023-04-16T20:00:39;8.00;;;6.10;;
12846;SDS011;6492;48.128;8.320;2023-04-16T20:04:46;5.50;;;4.67;;
12846;SDS011;6492;48.128;8.320;2023-04-16T20:08:50;5.43;;;4.37;;
12846;SDS011;6492;48.128;8.320;2023-04-16T20:12:58;9.40;;;6.50;;
12846;SDS011;6492;48.128;8.320;2023-04-16T20:17:00;8.60;;;6.87;;
12846;SDS011;6492;48.128;8.320;2023-04-16T20:21:02;9.17;;;6.53;;
12846;SDS011;6492;48.128;8.320;2023-04-16T20:25:05;8.47;;;6.27;;
12846;SDS011;6492;48.128;8.320;2023-04-16T20:29:09;7.03;;;5.40;;
12846;SDS011;6492;48.128;8.320;2023-04-16T20:33:11;6.07;;;5.20;;
12846;SDS011;6492;48.128;8.320;2023-04-16T20:37:12;6.47;;;5.37;;
12846;SDS011;6492;48.128;8.320;2023-04-16T20:45:31;8.07;;;5.97;;
12846;SDS011;6492;48.128;8.320;2023-04-16T20:49:37;7.90;;;6.80;;
12846;SDS011;6492;48.128;8.320;2023-04-16T20:53:46;8.50;;;6.37;;
12846;SDS011;6492;48.128;8.320;2023-04-16T20:57:51;8.90;;;6.63;;
12846;SDS011;6492;48.128;8.320;2023-04-16T21:01:54;8.83;;;6.50;;
12846;SDS011;6492;48.128;8.320;2023-04-16T21:05:55;11.67;;;7.77;;
12846;SDS011;6492;48.128;8.320;2023-04-16T21:09:57;10.90;;;8.03;;
12846;SDS011;6492;48.128;8.320;2023-04-16T21:13:59;10.43;;;7.47;;
12846;SDS011;6492;48.128;8.320;2023-04-16T21:18:02;11.53;;;8.13;;
12846;SDS011;6492;48.128;8.320;2023-04-16T21:22:04;12.33;;;8.90;;
12846;SDS011;6492;48.128;8.320;2023-04-16T21:26:06;12.43;;;9.10;;
12846;SDS011;6492;48.128;8.320;2023-04-16T21:30:08;13.73;;;9.00;;
12846;SDS011;6492;48.128;8.320;2023-04-16T21:34:18;12.43;;;8.80;;
12846;SDS011;6492;48.128;8.320;2023-04-16T21:38:19;14.73;;;10.13;;
12846;SDS011;6492;48.128;8.320;2023-04-16T21:42:22;15.50;;;10.37;;
12846;SDS011;6492;48.128;8.320;2023-04-16T21:46:24;12.73;;;9.40;;
12846;SDS011;6492;48.128;8.320;2023-04-16T21:50:28;16.30;;;10.43;;
12846;SDS011;6492;48.128;8.320;2023-04-16T21:54:30;13.70;;;10.03;;
12846;SDS011;6492;48.128;8.320;2023-04-16T21:58:32;14.17;;;10.37;;
12846;SDS011;6492;48.128;8.320;2023-04-16T22:02:33;14.30;;;10.13;;
12846;SDS011;6492;48.128;8.320;2023-04-16T22:06:39;16.83;;;10.83;;
12846;SDS011;6492;48.128;8.320;2023-04-16T22:10:58;15.23;;;10.50;;
12846;SDS011;6492;48.128;8.320;2023-04-16T22:15:01;15.03;;;10.77;;
12846;SDS011;6492;48.128;8.320;2023-04-16T22:19:04;15.13;;;10.63;;
12846;SDS011;6492;48.128;8.320;2023-04-16T22:23:07;16.30;;;11.43;;
12846;SDS011;6492;48.128;8.320;2023-04-16T22:27:09;17.20;;;11.30;;
12846;SDS011;6492;48.128;8.320;2023-04-16T22:31:11;14.00;;;10.63;;
12846;SDS011;6492;48.128;8.320;2023-04-16T22:35:12;17.00;;;11.43;;
12846;SDS011;6492;48.128;8.320;2023-04-16T22:39:16;14.83;;;10.67;;
12846;SDS011;6492;48.128;8.320;2023-04-16T22:43:17;14.20;;;10.47;;
12846;SDS011;6492;48.128;8.320;2023-04-16T22:47:19;15.20;;;10.33;;
12846;SDS011;6492;48.128;8.320;2023-04-16T22:51:21;18.23;;;11.30;;
12846;SDS011;6492;48.128;8.320;2023-04-16T22:55:24;15.60;;;10.47;;
12846;SDS011;6492;48.128;8.320;2023-04-16T22:59:26;15.03;;;10.27;;
12846;SDS011;6492;48.128;8.320;2023-04-16T23:03:28;14.97;;;9.83;;
12846;SDS011;6492;48.128;8.320;2023-04-16T23:07:30;13.80;;;10.27;;
12846;SDS011;6492;48.128;8.320;2023-04-16T23:11:33;13.10;;;9.70;;
12846;SDS011;6492;48.128;8.320;2023-04-16T23:15:35;15.57;;;10.43;;
12846;SDS011;6492;48.128;8.320;2023-04-16T23:19:36;15.40;;;10.67;;
12846;SDS011;6492;48.128;8.320;2023-04-16T23:23:38;14.53;;;9.93;;
12846;SDS011;6492;48.128;8.320;2023-04-16T23:27:41;15.57;;;10.47;;
12846;SDS011;6492;48.128;8.320;2023-04-16T23:31:43;14.10;;;10.43;;
12846;SDS011;6492;48.128;8.320;2023-04-16T23:35:45;15.37;;;10.87;;
12846;SDS011;6492;48.128;8.320;2023-04-16T23:39:47;18.07;;;10.53;;
12846;SDS011;6492;48.128;8.320;2023-04-16T23:43:50;17.23;;;10.33;;
12846;SDS011;6492;48.128;8.320;2023-04-16T23:47:52;13.67;;;9.80;;
12846;SDS011;6492;48.128;8.320;2023-04-16T23:52:01;12.80;;;9.30;;
12846;SDS011;6492;48.128;8.320;2023-04-16T23:56:03;10.93;;;8.30;;
